createdAt,value
2023-02-27T00:04:50.571Z,99247.49
2023-02-27T00:09:57.865Z,99245.54
2023-02-27T00:15:10.137Z,99251.50
2023-02-27T00:20:15.818Z,99256.98
2023-02-27T00:25:18.771Z,99259.89
2023-02-27T00:30:20.985Z,99268.45
2023-02-27T00:35:24.522Z,99273.56
2023-02-27T00:40:26.683Z,99274.77
2023-02-27T00:45:28.625Z,99268.48
2023-02-27T00:50:31.222Z,99271.00
2023-02-27T00:55:33.692Z,99268.03
2023-02-27T01:00:35.908Z,99268.41
2023-02-27T01:05:38.054Z,99268.82
2023-02-27T01:10:39.975Z,99271.07
2023-02-27T01:15:42.023Z,99268.48
2023-02-27T01:20:44.337Z,99269.41
2023-02-27T01:25:49.096Z,99272.82
2023-02-27T01:30:51.201Z,99279.20
2023-02-27T01:35:53.369Z,99282.42
2023-02-27T01:40:57.432Z,99287.02
2023-02-27T01:46:00.981Z,99291.01
2023-02-27T01:51:08.889Z,99294.54
2023-02-27T01:56:16.644Z,99297.52
2023-02-27T02:01:20.399Z,99304.36
2023-02-27T02:06:23.629Z,99302.67
2023-02-27T02:11:27.693Z,99303.66
2023-02-27T02:16:44.123Z,99311.31
2023-02-27T02:22:09.184Z,99316.77
2023-02-27T02:27:40.269Z,99322.58
2023-02-27T02:33:01.213Z,99330.54
2023-02-27T02:38:47.660Z,99336.94
2023-02-27T02:44:25.612Z,99338.33
2023-02-27T02:50:00.797Z,99343.44
2023-02-27T02:55:32.932Z,99349.55
2023-02-27T03:00:40.571Z,99358.42
2023-02-27T03:05:51.803Z,99352.79
2023-02-27T03:11:01.004Z,99355.05
2023-02-27T03:16:53.868Z,99354.86
2023-02-27T03:22:02.806Z,99356.35
2023-02-27T03:27:08.558Z,99354.73
2023-02-27T03:32:22.947Z,99349.23
2023-02-27T03:37:45.893Z,99347.21
2023-02-27T03:42:57.281Z,99349.89
2023-02-27T03:48:22.544Z,99355.27
2023-02-27T03:53:49.786Z,99359.81
2023-02-27T03:58:53.584Z,99366.66
2023-02-27T04:04:04.928Z,99369.80
2023-02-27T04:09:48.680Z,99373.71
2023-02-27T04:14:59.772Z,99378.28
2023-02-27T04:20:35.671Z,99387.21
2023-02-27T04:26:15.267Z,99396.29
2023-02-27T04:31:19.316Z,99399.71
2023-02-27T04:36:35.053Z,99399.55
2023-02-27T04:41:52.728Z,99401.57
2023-02-27T04:46:57.179Z,99410.66
2023-02-27T04:52:13.085Z,99413.45
2023-02-27T04:57:22.659Z,99415.92
2023-02-27T05:02:52.005Z,99419.58
2023-02-27T05:08:02.403Z,99418.05
2023-02-27T05:13:30.414Z,99419.04
2023-02-27T05:18:32.717Z,99423.80
2023-02-27T05:23:49.088Z,99432.05
2023-02-27T05:29:27.692Z,99430.73
2023-02-27T05:34:58.483Z,99436.98
2023-02-27T05:40:08.490Z,99438.60
2023-02-27T05:45:20.303Z,99441.13
2023-02-27T05:50:30.826Z,99448.80
2023-02-27T05:55:47.279Z,99448.09
2023-02-27T06:01:02.298Z,99455.59
2023-02-27T06:06:13.674Z,99463.25
2023-02-27T06:11:17.877Z,99471.37
2023-02-27T06:16:20.336Z,99476.74
2023-02-27T06:21:22.584Z,99477.02
2023-02-27T06:26:24.799Z,99482.48
2023-02-27T06:31:26.994Z,99479.29
2023-02-27T06:36:30.330Z,99483.78
2023-02-27T06:41:32.351Z,99485.85
2023-02-27T06:46:34.377Z,99492.59
2023-02-27T06:51:36.964Z,99497.48
2023-02-27T06:56:39.477Z,99499.74
2023-02-27T07:01:41.833Z,99504.62
2023-02-27T07:07:32.681Z,99507.13
2023-02-27T07:12:08.075Z,99509.71
2023-02-27T07:17:11.071Z,99503.29
2023-02-27T07:22:15.705Z,99497.11
2023-02-27T07:27:18.721Z,99506.60
2023-02-27T07:32:27.511Z,99520.27
2023-02-27T07:37:30.256Z,99525.73
2023-02-27T07:42:33.165Z,99522.48
2023-02-27T07:47:41.596Z,99522.30
2023-02-27T07:52:49.714Z,99528.29
2023-02-27T07:57:56.022Z,99538.48
2023-02-27T08:02:58.736Z,99546.86
2023-02-27T08:08:04.227Z,99545.61
2023-02-27T08:13:06.504Z,99545.31
2023-02-27T08:18:08.866Z,99553.44
2023-02-27T08:23:12.092Z,99561.92
2023-02-27T08:28:15.014Z,99569.33
2023-02-27T08:33:21.021Z,99574.52
2023-02-27T08:38:28.621Z,99581.41
2023-02-27T08:43:31.608Z,99583.96
2023-02-27T08:48:34.292Z,99591.91
2023-02-27T08:53:36.618Z,99594.14
2023-02-27T08:58:39.475Z,99601.38
2023-02-27T09:03:49.475Z,99608.51
2023-02-27T09:09:06.684Z,99614.02
2023-02-27T09:14:20.052Z,99618.95
2023-02-27T09:19:27.958Z,99621.46
2023-02-27T09:24:33.515Z,99621.86
2023-02-27T09:29:38.303Z,99622.52
2023-02-27T09:34:40.507Z,99624.54
2023-02-27T09:39:45.338Z,99617.60
2023-02-27T09:45:04.080Z,99614.06
2023-02-27T09:50:45.049Z,99608.29
2023-02-27T09:55:51.547Z,99617.69
2023-02-27T10:01:10.194Z,99612.50
2023-02-27T10:06:44.069Z,99618.48
2023-02-27T10:11:56.797Z,99610.29
2023-02-27T10:17:03.862Z,99618.95
2023-02-27T10:22:12.413Z,99614.42
2023-02-27T10:27:22.805Z,99617.65
2023-02-27T10:32:30.931Z,99615.65
2023-02-27T10:37:37.301Z,99622.27
2023-02-27T10:42:42.152Z,99618.09
2023-02-27T10:47:45.498Z,99615.63
2023-02-27T10:52:53.816Z,99611.75
2023-02-27T10:57:58.403Z,99617.98
2023-02-27T11:03:01.965Z,99620.83
2023-02-27T11:08:21.467Z,99628.13
2023-02-27T11:13:26.076Z,99626.70
2023-02-27T11:18:30.550Z,99627.64
2023-02-27T11:23:34.053Z,99623.78
2023-02-27T11:28:36.552Z,99622.52
2023-02-27T11:33:40.364Z,99621.86
2023-02-27T11:38:50.354Z,99619.35
2023-02-27T11:43:53.407Z,99628.04
2023-02-27T11:49:07.218Z,99627.41
2023-02-27T11:54:32.553Z,99624.46
2023-02-27T11:59:41.824Z,99618.52
2023-02-27T12:04:52.407Z,99615.79
2023-02-27T12:10:11.792Z,99625.85
2023-02-27T12:15:24.539Z,99622.63
2023-02-27T12:20:58.684Z,99621.15
2023-02-27T12:26:25.351Z,99622.73
2023-02-27T12:31:32.646Z,99625.53
2023-02-27T12:36:35.314Z,99627.37
2023-02-27T12:41:52.496Z,99623.68
2023-02-27T12:46:57.540Z,99637.91
2023-02-27T12:52:10.275Z,99641.83
2023-02-27T12:57:28.463Z,99645.42
2023-02-27T13:02:44.982Z,99643.36
2023-02-27T13:08:16.458Z,99642.10
2023-02-27T13:13:26.332Z,99649.61
2023-02-27T13:18:37.525Z,99645.86
2023-02-27T13:24:03.071Z,99645.86
2023-02-27T13:29:06.485Z,99644.48
2023-02-27T13:34:17.742Z,99645.86
2023-02-27T13:39:53.556Z,99649.60
2023-02-27T13:45:03.185Z,99644.59
2023-02-27T13:50:24.977Z,99650.52
2023-02-27T13:55:31.133Z,99657.47
2023-02-27T14:00:37.968Z,99666.12
2023-02-27T14:05:44.799Z,99673.54
2023-02-27T14:11:16.740Z,99679.33
2023-02-27T14:16:54.645Z,99683.89
2023-02-27T14:22:10.885Z,99680.64
2023-02-27T14:27:25.178Z,99680.23
2023-02-27T14:32:33.533Z,99678.67
2023-02-27T14:37:38.253Z,99682.80
2023-02-27T14:42:59.439Z,99683.52
2023-02-27T14:48:02.008Z,99686.95
2023-02-27T14:53:06.447Z,99691.33
2023-02-27T14:58:23.703Z,99700.13
2023-02-27T15:03:57.517Z,99706.45
2023-02-27T15:09:00.054Z,99713.05
2023-02-27T15:14:06.399Z,99711.94
2023-02-27T15:19:13.421Z,99717.21
2023-02-27T15:24:23.665Z,99716.86
2023-02-27T15:29:37.435Z,99717.50
2023-02-27T15:34:44.006Z,99725.15
2023-02-27T15:39:47.106Z,99730.70
2023-02-27T15:44:50.690Z,99737.54
2023-02-27T15:50:01.662Z,99737.86
2023-02-27T15:55:10.643Z,99744.08
2023-02-27T16:00:16.807Z,99756.00
2023-02-27T16:05:26.520Z,99756.93
2023-02-27T16:10:35.512Z,99765.46
2023-02-27T16:15:39.938Z,99770.64
2023-02-27T16:20:54.851Z,99769.10
2023-02-27T16:26:27.331Z,99771.96
2023-02-27T16:31:46.746Z,99771.46
2023-02-27T16:36:58.115Z,99772.83
2023-02-27T16:42:01.816Z,99780.29
2023-02-27T16:47:04.061Z,99784.59
2023-02-27T16:52:11.502Z,99790.35
2023-02-27T16:57:15.063Z,99797.60
2023-02-27T17:02:17.233Z,99802.91
2023-02-27T17:07:19.945Z,99805.10
2023-02-27T17:12:22.276Z,99812.20
2023-02-27T17:17:24.252Z,99821.20
2023-02-27T17:22:26.668Z,99824.00
2023-02-27T17:27:28.651Z,99825.52
2023-02-27T17:32:31.567Z,99827.37
2023-02-27T17:37:34.404Z,99834.91
2023-02-27T17:42:37.155Z,99838.77
2023-02-27T17:47:39.204Z,99844.46
2023-02-27T17:52:41.058Z,99850.24
2023-02-27T17:57:43.939Z,99851.91
2023-02-27T18:02:47.922Z,99854.27
2023-02-27T18:07:50.173Z,99858.54
2023-02-27T18:12:52.630Z,99864.31
2023-02-27T18:17:54.813Z,99871.40
2023-02-27T18:22:57.487Z,99884.21
2023-02-27T18:28:01.815Z,99890.54
2023-02-27T18:33:04.146Z,99888.84
2023-02-27T18:38:06.748Z,99892.28
2023-02-27T18:43:10.614Z,99895.67
2023-02-27T18:48:15.934Z,99905.24
2023-02-27T18:53:18.920Z,99908.34
2023-02-27T18:58:21.439Z,99908.08
2023-02-27T19:03:25.418Z,99913.55
2023-02-27T19:08:29.355Z,99915.34
2023-02-27T19:13:31.216Z,99918.00
2023-02-27T19:18:33.490Z,99925.27
2023-02-27T19:23:36.539Z,99929.14
2023-02-27T19:28:38.500Z,99930.98
2023-02-27T19:33:41.038Z,99934.27
2023-02-27T19:38:43.765Z,99937.41
2023-02-27T19:43:46.959Z,99939.27
2023-02-27T19:48:50.197Z,99942.08
2023-02-27T19:53:53.824Z,99948.05
2023-02-27T19:58:56.215Z,99951.46
2023-02-27T20:04:00.337Z,99955.30
2023-02-27T20:09:02.744Z,99957.52
2023-02-27T20:14:05.191Z,99965.38
2023-02-27T20:19:10.976Z,99969.64
2023-02-27T20:24:14.625Z,99975.59
2023-02-27T20:29:22.987Z,99980.17
2023-02-27T20:34:26.439Z,99981.07
2023-02-27T20:39:29.128Z,99983.16
2023-02-27T20:44:30.930Z,99983.01
2023-02-27T20:49:32.802Z,99981.35
2023-02-27T20:54:34.645Z,99986.09
2023-02-27T20:59:36.754Z,99991.89
2023-02-27T21:04:47.789Z,99998.18
2023-02-27T21:09:50.899Z,99994.47
2023-02-27T21:14:52.757Z,99991.65
2023-02-27T21:19:54.760Z,99988.78
2023-02-27T21:24:57.806Z,99990.55
2023-02-27T21:29:59.970Z,99992.45
2023-02-27T21:35:01.832Z,99985.42
2023-02-27T21:40:04.967Z,99991.73
2023-02-27T21:45:07.801Z,99996.95
2023-02-27T21:50:14.660Z,99997.18
2023-02-27T21:55:17.620Z,99996.02
2023-02-27T22:00:20.532Z,99995.73
2023-02-27T22:05:22.692Z,99999.13
2023-02-27T22:10:25.712Z,100000.31
2023-02-27T22:15:32.118Z,99995.01
2023-02-27T22:20:35.646Z,99990.20
2023-02-27T22:25:39.804Z,99993.03
2023-02-27T22:30:42.198Z,99992.24
2023-02-27T22:35:44.571Z,99994.11
2023-02-27T22:40:46.739Z,99996.84
2023-02-27T22:45:52.441Z,99997.33
2023-02-27T22:51:11.332Z,99999.36
2023-02-27T22:56:16.548Z,99997.71
2023-02-27T23:01:28.874Z,99999.36
2023-02-27T23:06:35.431Z,100002.09
2023-02-27T23:11:37.917Z,99994.77
2023-02-27T23:16:45.620Z,99998.02
2023-02-27T23:21:48.462Z,100003.65
2023-02-27T23:26:52.263Z,100010.83
2023-02-27T23:31:54.435Z,100009.49
2023-02-27T23:36:56.839Z,100008.42
2023-02-27T23:41:58.821Z,100011.45
2023-02-27T23:47:03.945Z,100009.66
2023-02-27T23:52:05.976Z,100010.20
2023-02-27T23:57:08.960Z,100008.17
